createdAt,value
2023-04-15T00:01:01.348Z,12.70
2023-04-15T00:03:29.907Z,12.70
2023-04-15T00:05:58.494Z,12.60
2023-04-15T00:08:25.572Z,12.60
2023-04-15T00:10:53.159Z,12.60
2023-04-15T00:13:20.339Z,12.50
2023-04-15T00:15:48.254Z,12.50
2023-04-15T00:18:15.173Z,12.50
2023-04-15T00:20:42.437Z,12.50
2023-04-15T00:23:09.563Z,12.40
2023-04-15T00:25:36.713Z,12.40
2023-04-15T00:28:04.183Z,12.40
2023-04-15T00:30:31.594Z,12.40
2023-04-15T00:32:58.844Z,12.30
2023-04-15T00:35:26.182Z,12.30
2023-04-15T00:37:53.175Z,12.30
2023-04-15T00:40:21.841Z,12.30
2023-04-15T00:42:51.524Z,12.20
2023-04-15T00:45:19.089Z,12.30
2023-04-15T00:47:46.465Z,12.20
2023-04-15T00:50:13.661Z,12.20
2023-04-15T00:52:41.034Z,12.20
2023-04-15T00:55:08.841Z,12.20
2023-04-15T00:57:36.561Z,12.10
2023-04-15T01:00:12.197Z,12.10
2023-04-15T01:02:39.637Z,12.10
2023-04-15T01:05:08.401Z,12.10
2023-04-15T01:07:35.878Z,12.10
2023-04-15T01:10:04.442Z,12.10
2023-04-15T01:12:33.147Z,12.10
2023-04-15T01:15:00.281Z,12.00
2023-04-15T01:17:27.208Z,12.00
2023-04-15T01:19:57.875Z,12.00
2023-04-15T01:22:26.796Z,12.00
2023-04-15T01:25:09.857Z,12.00
2023-04-15T01:27:41.369Z,12.00
2023-04-15T01:30:10.627Z,12.00
2023-04-15T01:32:38.145Z,11.90
2023-04-15T01:35:05.514Z,11.90
2023-04-15T01:37:33.443Z,11.80
2023-04-15T01:40:00.485Z,11.80
2023-04-15T01:42:27.840Z,11.70
2023-04-15T01:44:54.912Z,11.70
2023-04-15T01:47:22.583Z,11.70
2023-04-15T01:49:49.711Z,11.60
2023-04-15T01:52:16.707Z,11.60
2023-04-15T01:54:43.684Z,11.60
2023-04-15T01:57:12.893Z,11.60
2023-04-15T01:59:40.236Z,11.60
2023-04-15T02:02:08.028Z,11.50
2023-04-15T02:04:34.973Z,11.50
2023-04-15T02:07:01.881Z,11.50
2023-04-15T02:09:29.302Z,11.50
2023-04-15T02:11:58.820Z,11.40
2023-04-15T02:14:26.036Z,11.30
2023-04-15T02:16:57.748Z,11.30
2023-04-15T02:19:25.210Z,11.30
2023-04-15T02:21:52.140Z,11.30
2023-04-15T02:24:19.045Z,11.30
2023-04-15T02:26:46.838Z,11.20
2023-04-15T02:29:13.831Z,11.20
2023-04-15T02:31:42.257Z,11.20
2023-04-15T02:34:09.310Z,11.10
2023-04-15T02:36:36.298Z,11.10
2023-04-15T02:39:05.181Z,11.10
2023-04-15T02:41:32.156Z,11.10
2023-04-15T02:43:59.283Z,11.10
2023-04-15T02:46:27.477Z,11.10
2023-04-15T02:48:54.619Z,11.00
2023-04-15T02:51:23.414Z,11.00
2023-04-15T02:53:50.705Z,11.00
2023-04-15T02:56:19.557Z,11.00
2023-04-15T02:58:47.118Z,10.90
2023-04-15T03:01:14.619Z,10.90
2023-04-15T03:03:42.110Z,10.80
2023-04-15T03:06:09.373Z,10.80
2023-04-15T03:08:37.084Z,10.70
2023-04-15T03:11:04.688Z,10.70
2023-04-15T03:13:33.522Z,10.60
2023-04-15T03:16:06.816Z,10.60
2023-04-15T03:18:33.895Z,10.60
2023-04-15T03:21:03.232Z,10.50
2023-04-15T03:23:33.274Z,10.50
2023-04-15T03:26:04.539Z,10.50
2023-04-15T03:28:33.179Z,10.40
2023-04-15T03:31:01.236Z,10.40
2023-04-15T03:33:28.417Z,10.30
2023-04-15T03:35:55.309Z,10.30
2023-04-15T03:38:22.339Z,10.30
2023-04-15T03:40:49.202Z,10.30
2023-04-15T03:43:16.659Z,10.20
2023-04-15T03:45:43.482Z,10.20
2023-04-15T03:48:16.713Z,10.20
2023-04-15T03:50:44.700Z,10.10
2023-04-15T03:53:11.682Z,10.10
2023-04-15T03:55:38.622Z,10.10
2023-04-15T03:58:05.658Z,10.10
2023-04-15T04:00:32.596Z,10.00
2023-04-15T04:02:59.998Z,10.00
2023-04-15T04:05:27.213Z,10.00
2023-04-15T04:07:54.241Z,10.00
2023-04-15T04:10:21.286Z,10.00
2023-04-15T04:12:48.142Z,10.00
2023-04-15T04:15:15.062Z,9.90
2023-04-15T04:17:42.351Z,9.90
2023-04-15T04:20:09.473Z,9.90
2023-04-15T04:22:40.590Z,9.90
2023-04-15T04:25:08.699Z,9.90
2023-04-15T04:27:35.880Z,9.90
2023-04-15T04:30:03.387Z,9.90
2023-04-15T04:32:30.891Z,9.80
2023-04-15T04:34:57.686Z,9.80
2023-04-15T04:37:25.120Z,9.80
2023-04-15T04:39:52.107Z,9.80
2023-04-15T04:42:18.946Z,9.80
2023-04-15T04:44:46.435Z,9.80
2023-04-15T04:47:14.116Z,9.80
2023-04-15T04:49:41.241Z,9.70
2023-04-15T04:52:08.151Z,9.70
2023-04-15T04:54:35.141Z,9.70
2023-04-15T04:57:02.557Z,9.70
2023-04-15T04:59:29.543Z,9.70
2023-04-15T05:01:56.618Z,9.70
2023-04-15T05:04:23.538Z,9.60
2023-04-15T05:06:50.430Z,9.60
2023-04-15T05:09:17.349Z,9.60
2023-04-15T05:11:44.215Z,9.60
2023-04-15T05:14:11.136Z,9.60
2023-04-15T05:16:38.285Z,9.60
2023-04-15T05:19:05.672Z,9.60
2023-04-15T05:21:32.879Z,9.60
2023-04-15T05:23:59.684Z,9.50
2023-04-15T05:26:27.637Z,9.50
2023-04-15T05:28:55.072Z,9.50
2023-04-15T05:31:22.140Z,9.50
2023-04-15T05:33:49.227Z,9.50
2023-04-15T05:36:16.179Z,9.50
2023-04-15T05:38:43.052Z,9.50
2023-04-15T05:41:09.922Z,9.50
2023-04-15T05:43:36.721Z,9.50
2023-04-15T05:46:03.693Z,9.50
2023-04-15T05:48:30.610Z,9.50
2023-04-15T05:50:57.548Z,9.50
2023-04-15T05:53:24.466Z,9.50
2023-04-15T05:55:51.650Z,9.50
2023-04-15T05:58:18.598Z,9.50
2023-04-15T06:00:46.301Z,9.50
2023-04-15T06:03:13.596Z,9.40
2023-04-15T06:05:40.775Z,9.50
2023-04-15T06:08:08.356Z,9.40
2023-04-15T06:10:36.833Z,9.40
2023-04-15T06:13:04.549Z,9.50
2023-04-15T06:15:31.815Z,9.50
2023-04-15T06:17:58.846Z,9.50
2023-04-15T06:20:26.187Z,9.50
2023-04-15T06:22:53.255Z,9.50
2023-04-15T06:25:20.089Z,9.60
2023-04-15T06:27:47.093Z,9.60
2023-04-15T06:30:13.914Z,9.60
2023-04-15T06:32:40.911Z,9.60
2023-04-15T06:35:08.645Z,9.60
2023-04-15T06:37:35.502Z,9.60
2023-04-15T06:40:05.350Z,9.70
2023-04-15T06:42:32.458Z,9.70
2023-04-15T06:44:59.384Z,9.70
2023-04-15T06:47:26.767Z,9.70
2023-04-15T06:49:53.820Z,9.80
2023-04-15T06:52:20.829Z,9.80
2023-04-15T06:54:47.645Z,9.90
2023-04-15T06:57:14.499Z,9.90
2023-04-15T06:59:43.052Z,10.00
2023-04-15T07:02:13.291Z,10.00
2023-04-15T07:04:40.913Z,10.10
2023-04-15T07:07:08.066Z,10.20
2023-04-15T07:09:35.083Z,10.20
2023-04-15T07:12:01.861Z,10.20
2023-04-15T07:14:29.463Z,10.30
2023-04-15T07:16:56.809Z,10.40
2023-04-15T07:19:24.165Z,10.50
2023-04-15T07:21:51.421Z,10.50
2023-04-15T07:24:20.027Z,10.60
2023-04-15T07:26:47.266Z,10.70
2023-04-15T07:29:14.429Z,10.80
2023-04-15T07:31:42.271Z,10.90
2023-04-15T07:34:09.313Z,10.90
2023-04-15T07:36:36.860Z,11.00
2023-04-15T07:39:04.464Z,11.10
2023-04-15T07:41:31.770Z,11.20
2023-04-15T07:43:58.925Z,11.30
2023-04-15T07:46:27.476Z,11.30
2023-04-15T07:48:54.680Z,11.40
2023-04-15T07:51:21.649Z,11.50
2023-04-15T07:53:50.401Z,11.60
2023-04-15T07:56:17.307Z,11.70
2023-04-15T07:58:44.104Z,11.70
2023-04-15T08:01:11.939Z,11.80
2023-04-15T08:03:39.623Z,11.90
2023-04-15T08:06:06.831Z,12.00
2023-04-15T08:08:33.645Z,12.10
2023-04-15T08:11:00.701Z,12.20
2023-04-15T08:13:28.059Z,12.30
2023-04-15T08:16:33.898Z,12.50
2023-04-15T08:19:01.071Z,12.60
2023-04-15T08:21:28.695Z,12.80
2023-04-15T08:23:55.574Z,12.90
2023-04-15T08:26:22.940Z,13.10
2023-04-15T08:28:50.283Z,13.10
2023-04-15T08:31:18.711Z,13.20
2023-04-15T08:33:46.305Z,13.40
2023-04-15T08:36:14.177Z,13.50
2023-04-15T08:38:42.277Z,13.60
2023-04-15T08:41:21.410Z,13.70
2023-04-15T08:44:01.261Z,13.80
2023-04-15T08:46:28.386Z,13.90
2023-04-15T08:48:58.292Z,13.90
2023-04-15T08:51:25.429Z,14.00
2023-04-15T08:53:52.926Z,14.10
2023-04-15T08:56:22.946Z,14.20
2023-04-15T08:58:51.440Z,14.30
2023-04-15T09:01:18.740Z,14.40
2023-04-15T09:03:48.826Z,14.50
2023-04-15T09:06:17.474Z,14.70
2023-04-15T09:08:45.007Z,14.80
2023-04-15T09:11:12.866Z,14.90
2023-04-15T09:13:40.148Z,15.00
2023-04-15T09:16:08.252Z,15.00
2023-04-15T09:18:36.924Z,15.10
2023-04-15T09:21:12.677Z,15.30
2023-04-15T09:23:54.532Z,15.40
2023-04-15T09:26:37.792Z,15.60
2023-04-15T09:29:15.018Z,15.70
2023-04-15T09:31:42.812Z,15.60
2023-04-15T09:34:09.675Z,15.70
2023-04-15T09:36:51.098Z,15.80
2023-04-15T09:39:18.183Z,15.80
2023-04-15T09:41:45.215Z,15.90
2023-04-15T09:44:25.220Z,15.90
2023-04-15T09:46:52.061Z,16.00
2023-04-15T09:49:19.549Z,16.20
2023-04-15T09:52:01.342Z,16.20
2023-04-15T09:54:36.348Z,16.30
2023-04-15T09:57:13.145Z,16.30
2023-04-15T09:59:40.459Z,16.40
2023-04-15T10:02:07.962Z,16.50
2023-04-15T10:04:38.355Z,16.60
2023-04-15T10:07:06.439Z,16.60
2023-04-15T10:09:35.597Z,16.60
2023-04-15T10:12:04.845Z,16.60
2023-04-15T10:14:34.655Z,16.60
2023-04-15T10:17:04.309Z,16.70
2023-04-15T10:19:37.138Z,16.70
2023-04-15T10:22:04.740Z,16.70
2023-04-15T10:24:33.127Z,16.70
2023-04-15T10:27:01.784Z,16.70
2023-04-15T10:29:28.898Z,16.60
2023-04-15T10:31:57.004Z,16.60
2023-04-15T10:34:25.316Z,16.60
2023-04-15T10:36:56.359Z,16.60
2023-04-15T10:39:44.357Z,16.60
2023-04-15T10:42:13.866Z,16.60
2023-04-15T10:44:48.409Z,16.70
2023-04-15T10:47:21.357Z,16.70
2023-04-15T10:49:57.060Z,16.80
2023-04-15T10:52:27.516Z,16.90
2023-04-15T10:55:27.440Z,17.10
2023-04-15T10:57:58.301Z,17.30
2023-04-15T11:00:26.893Z,17.50
2023-04-15T11:03:07.422Z,17.60
2023-04-15T11:05:43.295Z,17.60
2023-04-15T11:08:10.920Z,17.40
2023-04-15T11:10:37.717Z,17.30
2023-04-15T11:13:27.119Z,17.30
2023-04-15T11:15:57.802Z,17.40
2023-04-15T11:18:30.673Z,17.50
2023-04-15T11:21:03.558Z,17.60
2023-04-15T11:23:46.677Z,17.40
2023-04-15T11:26:13.605Z,17.10
2023-04-15T11:28:45.583Z,17.10
2023-04-15T11:31:18.100Z,17.10
2023-04-15T11:33:56.988Z,17.20
2023-04-15T11:36:27.957Z,17.40
2023-04-15T11:38:55.549Z,17.50
2023-04-15T11:41:23.776Z,17.70
2023-04-15T11:43:51.688Z,17.60
2023-04-15T11:46:19.285Z,17.50
2023-04-15T11:48:47.207Z,17.60
2023-04-15T11:51:14.726Z,17.60
2023-04-15T11:53:46.641Z,17.50
2023-04-15T11:56:24.463Z,17.50
2023-04-15T11:58:59.690Z,17.60
2023-04-15T12:01:39.407Z,17.60
2023-04-15T12:04:20.896Z,17.30
2023-04-15T12:06:50.246Z,17.20
2023-04-15T12:09:17.218Z,17.30
2023-04-15T12:11:53.059Z,17.40
2023-04-15T12:14:28.923Z,17.50
2023-04-15T12:17:05.959Z,17.60
2023-04-15T12:19:38.058Z,17.60
2023-04-15T12:22:07.447Z,17.70
2023-04-15T12:24:35.941Z,17.60
2023-04-15T12:27:05.766Z,17.50
2023-04-15T12:29:34.364Z,17.40
2023-04-15T12:32:14.403Z,17.40
2023-04-15T12:34:43.536Z,17.30
2023-04-15T12:37:12.392Z,17.40
2023-04-15T12:39:42.253Z,17.40
2023-04-15T12:42:09.847Z,17.50
2023-04-15T12:44:37.790Z,17.70
2023-04-15T12:47:05.434Z,17.90
2023-04-15T12:49:32.882Z,17.90
2023-04-15T12:52:01.632Z,17.80
2023-04-15T12:54:29.947Z,17.70
2023-04-15T12:56:57.502Z,17.70
2023-04-15T12:59:24.852Z,17.50
2023-04-15T13:01:53.494Z,17.50
2023-04-15T13:04:21.433Z,17.50
2023-04-15T13:06:48.424Z,17.60
2023-04-15T13:09:15.833Z,17.70
2023-04-15T13:11:43.010Z,17.70
2023-04-15T13:14:11.663Z,17.80
2023-04-15T13:16:38.946Z,17.90
2023-04-15T13:19:05.931Z,17.90
2023-04-15T13:21:35.700Z,17.80
2023-04-15T13:24:04.066Z,17.90
2023-04-15T13:26:31.781Z,18.00
2023-04-15T13:28:58.727Z,17.80
2023-04-15T13:31:25.699Z,17.70
2023-04-15T13:33:53.001Z,17.50
2023-04-15T13:36:19.867Z,17.30
2023-04-15T13:38:47.998Z,17.20
2023-04-15T13:41:16.128Z,17.40
2023-04-15T13:43:43.312Z,17.40
2023-04-15T13:46:10.600Z,17.30
2023-04-15T13:48:37.446Z,17.10
2023-04-15T13:51:04.544Z,17.20
2023-04-15T13:53:38.292Z,17.30
2023-04-15T13:56:07.580Z,17.40
2023-04-15T13:58:34.776Z,17.20
2023-04-15T14:01:03.923Z,17.00
2023-04-15T14:03:32.793Z,16.80
2023-04-15T14:05:59.880Z,16.80
2023-04-15T14:08:26.977Z,16.90
2023-04-15T14:10:53.716Z,17.10
2023-04-15T14:13:20.686Z,17.30
2023-04-15T14:15:47.653Z,17.40
2023-04-15T14:18:14.539Z,17.50
2023-04-15T14:20:41.390Z,17.60
2023-04-15T14:23:08.158Z,17.50
2023-04-15T14:25:34.952Z,17.40
2023-04-15T14:28:03.564Z,17.40
2023-04-15T14:30:30.619Z,17.40
2023-04-15T14:32:57.683Z,17.40
2023-04-15T14:35:26.647Z,17.40
2023-04-15T14:37:54.385Z,17.20
2023-04-15T14:40:21.732Z,17.00
2023-04-15T14:42:48.903Z,16.90
2023-04-15T14:45:15.748Z,16.80
2023-04-15T14:47:42.581Z,16.80
2023-04-15T14:50:10.040Z,16.80
2023-04-15T14:52:40.014Z,16.60
2023-04-15T14:55:10.308Z,16.50
2023-04-15T14:57:41.326Z,16.50
2023-04-15T15:00:09.997Z,16.30
2023-04-15T15:02:40.678Z,16.20
2023-04-15T15:05:08.602Z,16.10
2023-04-15T15:07:37.166Z,16.00
2023-04-15T15:10:05.031Z,16.00
2023-04-15T15:12:33.416Z,16.10
2023-04-15T15:15:01.627Z,16.10
2023-04-15T16:17:34.752Z,15.00
2023-04-15T16:20:05.456Z,15.10
2023-04-15T16:22:34.408Z,15.00
2023-04-15T16:25:01.577Z,14.90
2023-04-15T16:27:28.520Z,14.80
2023-04-15T16:29:55.314Z,14.70
2023-04-15T16:32:22.491Z,14.50
2023-04-15T16:34:49.425Z,14.20
2023-04-15T16:37:16.368Z,14.00
2023-04-15T16:39:43.279Z,13.90
2023-04-15T16:42:10.587Z,13.90
2023-04-15T16:44:37.416Z,14.00
2023-04-15T16:47:04.290Z,14.00
2023-04-15T16:49:31.172Z,14.00
2023-04-15T16:51:58.238Z,13.90
2023-04-15T16:54:25.239Z,13.70
2023-04-15T16:56:52.011Z,13.70
2023-04-15T16:59:18.816Z,13.70
2023-04-15T17:01:45.818Z,13.60
2023-04-15T17:04:13.073Z,13.60
2023-04-15T17:06:39.931Z,13.50
2023-04-15T17:09:07.170Z,13.60
2023-04-15T17:11:35.213Z,13.60
2023-04-15T17:14:02.880Z,13.50
2023-04-15T17:16:29.953Z,13.50
2023-04-15T17:18:56.800Z,13.40
2023-04-15T17:21:23.578Z,13.30
2023-04-15T17:23:52.223Z,13.20
2023-04-15T17:26:19.555Z,13.10
2023-04-15T17:28:46.522Z,13.00
2023-04-15T17:31:13.401Z,12.90
2023-04-15T17:34:00.563Z,12.80
2023-04-15T17:36:27.454Z,12.80
2023-04-15T17:38:57.101Z,12.80
2023-04-15T17:41:24.627Z,12.80
2023-04-15T17:43:51.455Z,12.90
2023-04-15T17:46:19.418Z,12.90
2023-04-15T17:48:47.591Z,12.90
2023-04-15T17:51:15.118Z,12.90
2023-04-15T17:53:42.209Z,12.90
2023-04-15T17:56:09.233Z,12.80
2023-04-15T17:58:36.320Z,12.70
2023-04-15T18:01:03.101Z,12.60
2023-04-15T18:03:30.395Z,12.50
2023-04-15T18:05:57.317Z,12.50
2023-04-15T18:08:24.278Z,12.50
2023-04-15T18:10:51.105Z,12.50
2023-04-15T18:13:17.965Z,12.50
2023-04-15T18:15:47.206Z,12.40
2023-04-15T18:18:14.553Z,12.40
2023-04-15T18:20:41.612Z,12.40
2023-04-15T18:23:08.855Z,12.40
2023-04-15T18:25:38.213Z,12.30
2023-04-15T18:28:05.859Z,12.30
2023-04-15T18:30:33.024Z,12.20
2023-04-15T18:33:00.001Z,12.10
2023-04-15T18:35:29.824Z,12.00
2023-04-15T18:37:59.418Z,12.00
2023-04-15T18:40:26.821Z,11.90
2023-04-15T18:42:54.092Z,11.90
2023-04-15T18:45:21.141Z,11.90
2023-04-15T18:47:48.702Z,12.00
2023-04-15T18:50:15.658Z,12.00
2023-04-15T18:52:42.656Z,11.90
2023-04-15T18:55:09.636Z,12.00
2023-04-15T18:57:42.437Z,11.90
2023-04-15T19:00:12.911Z,11.90
2023-04-15T19:02:40.479Z,11.90
2023-04-15T19:05:07.869Z,11.80
2023-04-15T19:07:35.624Z,11.80
2023-04-15T19:10:06.148Z,11.70
2023-04-15T19:12:33.313Z,11.70
2023-04-15T19:15:00.185Z,11.70
2023-04-15T19:17:27.175Z,11.60
2023-04-15T19:19:54.061Z,11.50
2023-04-15T19:22:20.959Z,11.50
2023-04-15T19:24:47.906Z,11.40
2023-04-15T19:27:14.705Z,11.40
2023-04-15T19:29:41.720Z,11.30
2023-04-15T19:32:08.872Z,11.30
2023-04-15T19:34:35.892Z,11.30
2023-04-15T19:37:02.799Z,11.30
2023-04-15T19:39:29.757Z,11.30
2023-04-15T19:41:56.995Z,11.30
2023-04-15T19:44:23.946Z,11.20
2023-04-15T19:46:53.147Z,11.20
2023-04-15T19:49:20.378Z,11.20
2023-04-15T19:51:49.918Z,11.20
2023-04-15T19:54:17.026Z,11.20
2023-04-15T19:56:44.022Z,11.10
2023-04-15T19:59:12.761Z,11.20
2023-04-15T20:01:40.197Z,11.20
2023-04-15T20:04:07.465Z,11.20
2023-04-15T20:06:34.507Z,11.20
2023-04-15T20:09:01.557Z,11.20
2023-04-15T20:12:05.649Z,11.10
2023-04-15T20:14:17.582Z,11.10
2023-04-15T20:16:44.944Z,11.10
2023-04-15T20:19:14.316Z,11.10
2023-04-15T20:21:41.816Z,11.00
2023-04-15T20:24:09.101Z,11.00
2023-04-15T20:26:36.289Z,11.00
2023-04-15T20:29:03.602Z,11.00
2023-04-15T20:31:31.018Z,11.00
2023-04-15T20:33:57.963Z,10.90
2023-04-15T20:36:25.139Z,10.90
2023-04-15T20:38:52.094Z,10.90
2023-04-15T20:41:19.693Z,10.90
2023-04-15T20:43:46.671Z,10.90
2023-04-15T20:46:21.117Z,10.90
2023-04-15T20:48:49.172Z,10.90
2023-04-15T20:51:16.077Z,11.00
2023-04-15T20:53:42.988Z,11.00
2023-04-15T20:56:10.110Z,11.10
2023-04-15T20:58:38.766Z,11.10
2023-04-15T21:01:05.851Z,11.10
2023-04-15T21:03:33.043Z,11.00
2023-04-15T21:06:00.028Z,10.90
2023-04-15T21:08:29.669Z,10.90
2023-04-15T21:10:57.569Z,10.90
2023-04-15T21:13:24.790Z,11.00
2023-04-15T21:15:53.921Z,11.00
2023-04-15T21:18:21.649Z,10.90
2023-04-15T21:20:57.437Z,10.90
2023-04-15T21:23:24.303Z,10.90
2023-04-15T21:25:51.149Z,10.90
2023-04-15T21:28:18.405Z,10.90
2023-04-15T21:30:45.948Z,11.00
2023-04-15T21:33:12.960Z,11.00
2023-04-15T21:35:39.952Z,11.00
2023-04-15T21:38:07.503Z,11.00
2023-04-15T21:40:34.746Z,11.00
2023-04-15T21:43:01.812Z,11.00
2023-04-15T21:45:29.394Z,10.90
2023-04-15T21:48:00.328Z,10.80
2023-04-15T21:50:36.617Z,10.80
2023-04-15T21:53:04.472Z,10.80
2023-04-15T21:55:31.455Z,10.70
2023-04-15T21:57:58.586Z,10.70
2023-04-15T22:00:25.514Z,10.70
2023-04-15T22:02:52.875Z,10.70
2023-04-15T22:05:19.928Z,10.70
2023-04-15T22:07:47.052Z,10.70
2023-04-15T22:10:14.241Z,10.70
2023-04-15T22:12:42.005Z,10.70
2023-04-15T22:15:09.381Z,10.70
2023-04-15T22:17:36.496Z,10.70
2023-04-15T22:20:04.131Z,10.80
2023-04-15T22:22:44.362Z,10.70
2023-04-15T22:25:14.748Z,10.80
2023-04-15T22:27:41.677Z,10.80
2023-04-15T22:30:10.000Z,10.80
2023-04-15T22:32:37.053Z,10.80
2023-04-15T22:35:06.435Z,10.80
2023-04-15T22:37:33.726Z,10.80
2023-04-15T22:40:02.006Z,10.80
2023-04-15T22:42:28.845Z,10.80
2023-04-15T22:44:55.816Z,10.90
2023-04-15T22:47:22.654Z,10.90
2023-04-15T22:49:49.530Z,10.90
2023-04-15T22:52:29.331Z,10.90
2023-04-15T22:54:57.558Z,10.90
2023-04-15T22:57:24.702Z,10.90
2023-04-15T22:59:51.558Z,10.90
2023-04-15T23:02:18.640Z,10.90
2023-04-15T23:04:46.018Z,10.90
2023-04-15T23:07:13.151Z,10.90
2023-04-15T23:09:40.307Z,10.80
2023-04-15T23:12:07.661Z,10.80
2023-04-15T23:14:34.471Z,10.90
2023-04-15T23:17:01.435Z,10.90
2023-04-15T23:19:28.474Z,10.90
2023-04-15T23:21:55.513Z,10.90
2023-04-15T23:24:22.689Z,10.80
2023-04-15T23:26:49.920Z,10.80
2023-04-15T23:29:17.221Z,10.80
2023-04-15T23:31:47.297Z,10.80
2023-04-15T23:34:14.373Z,10.80
2023-04-15T23:36:41.337Z,10.80
2023-04-15T23:39:08.333Z,10.70
2023-04-15T23:41:36.572Z,10.70
2023-04-15T23:44:03.501Z,10.70
2023-04-15T23:46:30.541Z,10.60
2023-04-15T23:48:57.457Z,10.70
2023-04-15T23:51:24.508Z,10.70
2023-04-15T23:53:52.459Z,10.80
2023-04-15T23:56:19.470Z,10.80
2023-04-15T23:58:46.303Z,10.70
